Time;durP1;ratioP1;P1;durP2;ratioP2;P2;SDS_P1;SDS_P2;PMS_P1;PMS_P2;Temp;Humidity;BMP_temperature;BMP_pressure;BME280_temperature;BME280_humidity;BME280_pressure;Samples;Min_cycle;Max_cycle;Signal;HPM_P1;HPM_P2
2022/12/28 00:01:06;;;;;;;12.90;9.10;;;3.60;40.90;;;;;;4946115;28;22660;-71
2022/12/28 00:03:33;;;;;;;15.37;8.90;;;3.60;40.90;;;;;;4949773;28;20524;-71
2022/12/28 00:06:00;;;;;;;15.13;8.70;;;3.60;40.80;;;;;;4951177;28;20497;-71
2022/12/28 00:08:27;;;;;;;18.50;10.53;;;3.60;40.90;;;;;;4950381;28;21185;-71
2022/12/28 00:10:59;;;;;;;16.83;10.00;;;3.60;40.90;;;;;;4952283;28;20489;-71
2022/12/28 00:13:26;;;;;;;13.77;9.20;;;3.60;40.90;;;;;;4953202;28;20462;-71
2022/12/28 00:15:54;;;;;;;13.00;8.57;;;3.60;41.00;;;;;;4950693;28;20464;-72
2022/12/28 00:18:21;;;;;;;13.20;9.20;;;3.60;40.90;;;;;;4948971;28;20841;-71
2022/12/28 00:20:56;;;;;;;15.40;9.83;;;3.60;41.10;;;;;;4951574;28;20485;-71
2022/12/28 00:23:23;;;;;;;14.57;8.80;;;3.60;40.90;;;;;;4952694;28;20474;-71
2022/12/28 00:25:50;;;;;;;12.67;8.80;;;3.60;40.70;;;;;;4951093;28;21013;-71
2022/12/28 00:28:16;;;;;;;19.33;9.70;;;3.60;40.80;;;;;;4953194;28;20490;-71
2022/12/28 00:30:43;;;;;;;14.00;9.80;;;3.50;40.90;;;;;;4948679;28;20491;-71
2022/12/28 00:33:11;;;;;;;16.60;10.00;;;3.50;41.00;;;;;;4949908;28;20472;-71
2022/12/28 00:35:38;;;;;;;16.13;10.80;;;3.50;41.00;;;;;;4948282;28;20468;-71
2022/12/28 00:38:05;;;;;;;14.00;10.23;;;3.50;41.00;;;;;;4947440;28;20752;-71
2022/12/28 00:40:32;;;;;;;16.23;10.57;;;3.50;41.10;;;;;;4950283;28;20482;-71
2022/12/28 00:42:59;;;;;;;21.23;10.47;;;3.50;41.40;;;;;;4949160;28;20468;-71
2022/12/28 00:45:26;;;;;;;14.63;9.90;;;3.60;41.30;;;;;;4945704;28;21139;-71
2022/12/28 00:47:52;;;;;;;15.40;10.40;;;3.60;41.30;;;;;;4951231;28;20477;-71
2022/12/28 00:50:20;;;;;;;16.10;10.80;;;3.60;41.30;;;;;;4947718;28;20492;-71
2022/12/28 00:52:47;;;;;;;14.73;10.30;;;3.50;41.40;;;;;;4947934;28;20843;-71
2022/12/28 00:55:14;;;;;;;15.33;9.23;;;3.50;41.50;;;;;;4950262;28;21070;-70
2022/12/28 00:57:41;;;;;;;13.77;9.47;;;3.50;41.70;;;;;;4948491;28;20461;-71
2022/12/28 01:00:08;;;;;;;12.93;8.97;;;3.50;42.10;;;;;;4951069;28;20486;-71
2022/12/28 01:02:35;;;;;;;14.00;10.10;;;3.50;42.30;;;;;;4950753;28;20492;-71
2022/12/28 01:05:02;;;;;;;13.70;9.83;;;3.50;42.60;;;;;;4950663;28;20467;-71
2022/12/28 01:07:30;;;;;;;15.13;10.03;;;3.50;42.60;;;;;;4948022;28;20470;-71
2022/12/28 01:09:57;;;;;;;16.03;9.40;;;3.50;43.00;;;;;;4948423;28;20522;-71
2022/12/28 01:12:24;;;;;;;14.90;10.10;;;3.50;43.20;;;;;;4945415;28;20590;-70
2022/12/28 01:14:50;;;;;;;14.30;10.20;;;3.50;43.40;;;;;;4950989;28;20545;-70
2022/12/28 01:17:17;;;;;;;13.77;10.10;;;3.50;43.40;;;;;;4952168;28;20489;-71
2022/12/28 01:19:44;;;;;;;13.47;9.43;;;3.50;43.40;;;;;;4954360;28;20477;-71
2022/12/28 01:22:10;;;;;;;14.40;10.47;;;3.50;43.10;;;;;;4949893;28;20466;-71
2022/12/28 01:24:38;;;;;;;15.67;9.80;;;3.50;43.00;;;;;;4946867;28;20982;-70
2022/12/28 01:27:05;;;;;;;13.30;9.30;;;3.50;43.40;;;;;;4949296;28;20462;-71
2022/12/28 01:29:32;;;;;;;14.17;9.53;;;3.50;42.70;;;;;;4942444;28;21045;-71
2022/12/28 01:31:59;;;;;;;14.33;10.03;;;3.50;42.60;;;;;;4936307;28;20492;-71
2022/12/28 01:34:26;;;;;;;12.33;8.67;;;3.50;42.60;;;;;;4941600;28;20502;-70
2022/12/28 01:36:52;;;;;;;14.70;10.10;;;3.50;42.80;;;;;;4941821;28;20842;-71
2022/12/28 01:39:19;;;;;;;13.33;9.03;;;3.50;42.50;;;;;;4935548;28;20463;-70
2022/12/28 01:41:47;;;;;;;13.43;9.40;;;3.60;42.40;;;;;;4939922;28;20493;-70
2022/12/28 01:44:44;;;;;;;15.13;9.93;;;3.60;42.20;;;;;;4943629;28;20513;-71
2022/12/28 01:47:15;;;;;;;12.90;8.80;;;3.60;42.40;;;;;;4939087;28;20474;-71
2022/12/28 01:49:47;;;;;;;13.83;9.30;;;3.60;42.40;;;;;;4944266;28;20501;-71
2022/12/28 01:52:18;;;;;;;13.10;8.80;;;3.60;42.40;;;;;;4942317;28;20474;-71
2022/12/28 01:54:48;;;;;;;16.13;10.23;;;3.60;42.50;;;;;;4939784;28;20474;-70
2022/12/28 01:57:18;;;;;;;18.13;9.13;;;3.60;42.40;;;;;;4944649;28;20840;-70
2022/12/28 01:59:51;;;;;;;15.37;11.37;;;3.60;42.80;;;;;;4942896;28;21015;-70
2022/12/28 02:02:19;;;;;;;13.23;9.43;;;3.60;42.70;;;;;;4941235;28;20474;-69
2022/12/28 02:04:47;;;;;;;13.70;9.87;;;3.60;42.80;;;;;;4939490;28;20470;-71
2022/12/28 02:07:18;;;;;;;14.03;8.90;;;3.70;42.90;;;;;;4943004;28;21007;-70
2022/12/28 02:09:45;;;;;;;14.87;10.90;;;3.70;42.90;;;;;;4941914;28;20487;-71
2022/12/28 02:12:15;;;;;;;13.63;9.60;;;3.70;42.80;;;;;;4942743;28;20462;-71
2022/12/28 02:14:44;;;;;;;12.20;9.10;;;3.70;42.80;;;;;;4935942;28;20474;-70
2022/12/28 02:17:13;;;;;;;13.97;10.23;;;3.70;42.90;;;;;;4940504;28;20502;-70
2022/12/28 02:19:44;;;;;;;13.97;9.93;;;3.70;42.90;;;;;;4943135;28;20968;-71
2022/12/28 02:22:45;;;;;;;14.90;10.20;;;3.70;42.70;;;;;;4944515;28;20467;-71
2022/12/28 02:25:46;;;;;;;13.63;9.40;;;3.70;42.70;;;;;;4940843;28;20459;-70
2022/12/28 02:28:32;;;;;;;17.97;10.60;;;3.60;42.60;;;;;;4911669;28;20618;-71
2022/12/28 02:31:07;;;;;;;15.33;9.90;;;3.60;42.50;;;;;;4939079;28;20483;-70
2022/12/28 02:33:41;;;;;;;14.33;9.67;;;3.50;42.40;;;;;;4940556;28;20450;-71
2022/12/28 02:36:13;;;;;;;16.37;10.00;;;3.50;42.30;;;;;;4939607;28;20507;-71
2022/12/28 02:38:45;;;;;;;13.67;9.87;;;3.50;42.10;;;;;;4942099;28;20474;-70
2022/12/28 02:41:15;;;;;;;14.80;10.97;;;3.50;42.00;;;;;;4941386;28;20490;-70
2022/12/28 02:43:42;;;;;;;15.33;10.60;;;3.40;42.10;;;;;;4941235;28;21176;-70
2022/12/28 02:51:59;;;;;;;16.60;10.33;;;3.40;41.90;;;;;;4919049;28;20466;-70
2022/12/28 02:58:10;;;;;;;16.57;11.27;;;3.40;42.40;;;;;;4962004;28;21003;-64
2022/12/28 03:00:52;;;;;;;15.77;10.87;;;3.50;42.50;;;;;;4965577;28;20458;-64
2022/12/28 03:03:30;;;;;;;16.37;10.50;;;3.50;42.60;;;;;;4957512;28;20465;-64
2022/12/28 03:08:57;;;;;;;16.43;10.97;;;3.50;42.50;;;;;;4962644;28;20453;-64
2022/12/28 03:11:30;;;;;;;17.53;11.80;;;3.60;42.70;;;;;;4967199;28;20476;-65
2022/12/28 03:14:02;;;;;;;15.80;10.63;;;3.60;42.60;;;;;;4958800;28;20494;-64
2022/12/28 03:16:32;;;;;;;15.30;10.73;;;3.70;42.70;;;;;;4960179;28;20469;-64
2022/12/28 03:33:00;;;;;;;16.10;11.00;;;3.90;41.60;;;;;;4957882;28;20568;-65
2022/12/28 03:35:35;;;;;;;16.80;11.40;;;3.90;41.50;;;;;;4959028;28;20472;-64
2022/12/28 03:38:03;;;;;;;19.30;12.53;;;3.90;41.80;;;;;;4960418;28;20464;-64
2022/12/28 03:40:37;;;;;;;19.10;12.70;;;3.90;42.00;;;;;;4961352;28;20458;-63
2022/12/28 03:45:58;;;;;;;18.67;13.27;;;4.00;42.30;;;;;;4963333;28;20458;-64
2022/12/28 03:48:25;;;;;;;19.60;12.10;;;4.00;42.20;;;;;;4964037;28;21223;-64
2022/12/28 03:50:54;;;;;;;20.20;13.20;;;4.00;42.10;;;;;;4966325;28;20489;-64
2022/12/28 03:53:26;;;;;;;20.10;11.30;;;4.00;42.20;;;;;;4964075;28;20492;-64
2022/12/28 03:56:04;;;;;;;17.60;12.80;;;4.00;42.20;;;;;;4965772;28;20465;-64
2022/12/28 03:58:31;;;;;;;18.43;13.27;;;4.10;42.10;;;;;;4961330;28;20473;-65
2022/12/28 04:00:57;;;;;;;16.77;11.77;;;4.10;41.90;;;;;;4966266;28;20481;-64
2022/12/28 04:03:24;;;;;;;17.27;11.03;;;4.10;41.90;;;;;;4965087;28;20500;-64
2022/12/28 04:05:52;;;;;;;16.67;12.83;;;4.00;41.80;;;;;;4961862;28;20469;-65
2022/12/28 04:08:19;;;;;;;19.53;12.10;;;4.00;41.70;;;;;;4965522;28;20458;-64
2022/12/28 04:10:46;;;;;;;17.20;12.07;;;4.10;42.00;;;;;;4963776;28;21042;-64
2022/12/28 04:13:12;;;;;;;16.40;11.80;;;4.00;41.90;;;;;;4962515;28;20462;-65
2022/12/28 04:15:39;;;;;;;17.87;12.20;;;4.10;42.00;;;;;;4963353;28;20469;-65
2022/12/28 04:18:06;;;;;;;17.40;11.47;;;4.00;41.80;;;;;;4961107;28;20472;-64
2022/12/28 04:20:33;;;;;;;16.60;12.23;;;4.10;41.90;;;;;;4964883;28;20462;-64
2022/12/28 04:23:01;;;;;;;16.07;11.27;;;4.10;42.60;;;;;;4960846;28;20496;-64
2022/12/28 04:25:28;;;;;;;16.93;12.07;;;4.00;42.00;;;;;;4961368;28;20466;-64
2022/12/28 04:27:55;;;;;;;17.83;12.30;;;4.00;41.90;;;;;;4965348;28;20461;-64
2022/12/28 04:30:21;;;;;;;16.63;10.90;;;4.00;42.00;;;;;;4953426;28;20849;-64
2022/12/28 04:32:48;;;;;;;17.80;12.70;;;4.00;42.00;;;;;;4961128;28;20519;-64
2022/12/28 04:35:15;;;;;;;17.73;12.00;;;4.00;41.90;;;;;;4960717;28;20485;-64
2022/12/28 04:37:42;;;;;;;20.03;12.97;;;4.00;41.90;;;;;;4964303;28;20458;-64
2022/12/28 04:40:11;;;;;;;19.13;12.57;;;4.00;41.80;;;;;;4963126;28;20457;-64
2022/12/28 04:42:37;;;;;;;17.53;12.07;;;4.00;41.70;;;;;;4962512;28;20469;-64
2022/12/28 04:45:05;;;;;;;19.53;12.10;;;4.00;42.40;;;;;;4960643;28;20489;-64
2022/12/28 04:47:32;;;;;;;17.10;12.20;;;4.00;41.70;;;;;;4957150;28;20461;-64
2022/12/28 04:49:59;;;;;;;18.60;12.73;;;4.00;41.70;;;;;;4962499;28;20488;-64
2022/12/28 04:52:26;;;;;;;16.47;12.57;;;4.00;41.70;;;;;;4964947;28;20470;-64
2022/12/28 04:54:52;;;;;;;18.03;12.13;;;4.00;41.70;;;;;;4959801;28;20504;-64
2022/12/28 04:57:20;;;;;;;19.03;12.17;;;4.00;41.60;;;;;;4964111;28;20835;-65
2022/12/28 04:59:47;;;;;;;17.33;11.80;;;4.00;41.70;;;;;;4963131;28;20453;-65
2022/12/28 05:02:14;;;;;;;17.70;12.37;;;4.00;41.70;;;;;;4954754;28;20480;-65
2022/12/28 05:04:41;;;;;;;16.57;11.00;;;4.00;41.50;;;;;;4958423;28;21115;-65
2022/12/28 05:07:07;;;;;;;16.20;11.03;;;4.00;41.60;;;;;;4959952;28;20961;-64
2022/12/28 05:09:34;;;;;;;14.50;9.73;;;4.00;41.30;;;;;;4964407;28;20468;-63
2022/12/28 05:12:01;;;;;;;15.60;9.50;;;4.00;41.10;;;;;;4962710;28;20462;-64
2022/12/28 05:14:29;;;;;;;14.57;9.70;;;4.10;41.00;;;;;;4963572;28;20481;-64
2022/12/28 05:16:55;;;;;;;16.23;10.47;;;4.00;41.10;;;;;;4968478;28;20465;-64
2022/12/28 05:19:22;;;;;;;15.40;10.10;;;4.00;41.30;;;;;;4968075;28;20958;-64
2022/12/28 05:21:49;;;;;;;16.70;10.53;;;3.80;41.40;;;;;;4966581;28;20470;-64
2022/12/28 05:24:16;;;;;;;14.83;10.27;;;3.90;41.50;;;;;;4967281;28;20492;-64
2022/12/28 05:26:42;;;;;;;15.43;9.93;;;4.00;41.50;;;;;;4965327;28;20462;-64
2022/12/28 05:29:09;;;;;;;14.97;10.17;;;4.00;41.70;;;;;;4968214;28;20839;-64
2022/12/28 05:31:37;;;;;;;14.87;10.20;;;4.00;41.80;;;;;;4966133;28;20481;-64
2022/12/28 05:34:04;;;;;;;17.27;10.43;;;4.00;42.00;;;;;;4967701;28;20874;-64
2022/12/28 05:36:35;;;;;;;13.63;9.43;;;4.00;42.20;;;;;;4965147;28;20506;-64
2022/12/28 05:39:02;;;;;;;13.47;9.83;;;4.10;42.10;;;;;;4965981;28;20484;-64
2022/12/28 05:41:29;;;;;;;13.20;9.33;;;4.10;42.10;;;;;;4966762;28;20457;-64
2022/12/28 05:43:58;;;;;;;14.10;8.87;;;4.10;42.20;;;;;;4963973;28;20481;-63
2022/12/28 05:46:27;;;;;;;14.03;9.53;;;4.10;42.20;;;;;;4968660;28;20464;-64
2022/12/28 05:48:55;;;;;;;13.80;9.37;;;4.10;42.20;;;;;;4962163;28;20466;-64
2022/12/28 05:51:24;;;;;;;13.67;9.00;;;4.10;42.30;;;;;;4966978;28;20509;-63
2022/12/28 05:53:51;;;;;;;13.10;9.10;;;4.20;42.20;;;;;;4965930;28;20742;-64
2022/12/28 05:56:20;;;;;;;14.10;8.47;;;4.20;42.20;;;;;;4966271;28;20468;-64
2022/12/28 05:58:52;;;;;;;13.93;9.40;;;4.20;42.20;;;;;;4966674;28;20590;-64
2022/12/28 06:01:20;;;;;;;14.50;9.97;;;4.20;42.40;;;;;;4964077;28;20482;-64
2022/12/28 06:03:51;;;;;;;11.63;7.93;;;4.30;42.40;;;;;;4960864;28;20504;-64
2022/12/28 06:06:20;;;;;;;13.33;8.53;;;4.30;42.40;;;;;;4968060;28;20461;-64
2022/12/28 06:08:48;;;;;;;13.33;8.87;;;4.40;42.30;;;;;;4963919;28;20467;-64
2022/12/28 06:11:17;;;;;;;16.10;9.03;;;4.40;42.20;;;;;;4963229;28;20477;-64
2022/12/28 06:13:44;;;;;;;13.00;8.37;;;4.40;42.10;;;;;;4964744;28;20489;-64
2022/12/28 06:16:13;;;;;;;12.93;9.63;;;4.40;42.70;;;;;;4965774;28;20465;-64
2022/12/28 06:18:40;;;;;;;17.73;9.53;;;4.40;42.00;;;;;;4965448;28;20853;-64
2022/12/28 06:21:08;;;;;;;15.07;9.20;;;4.40;41.90;;;;;;4966045;28;20458;-64
2022/12/28 06:23:37;;;;;;;14.60;10.73;;;4.30;41.90;;;;;;4962938;28;20485;-63
2022/12/28 06:26:06;;;;;;;14.53;9.80;;;4.30;41.80;;;;;;4964589;28;20461;-64
2022/12/28 06:28:36;;;;;;;18.60;11.40;;;4.30;41.70;;;;;;4959353;28;20473;-64
2022/12/28 06:31:04;;;;;;;15.80;11.50;;;4.30;41.70;;;;;;4962860;28;20831;-64
2022/12/28 06:33:30;;;;;;;16.80;11.50;;;4.40;41.50;;;;;;4960678;28;20486;-64
2022/12/28 06:35:57;;;;;;;17.30;12.10;;;4.40;41.60;;;;;;4964232;28;20516;-65
2022/12/28 06:38:25;;;;;;;19.93;11.80;;;4.40;41.50;;;;;;4967098;28;20473;-64
2022/12/28 06:40:53;;;;;;;15.00;10.90;;;4.50;41.80;;;;;;4959048;28;20469;-64
2022/12/28 06:43:20;;;;;;;14.80;10.80;;;4.50;41.80;;;;;;4963897;28;20473;-64
2022/12/28 06:45:55;;;;;;;16.10;11.00;;;4.50;41.70;;;;;;4956510;28;20580;-64
2022/12/28 06:48:22;;;;;;;16.73;12.00;;;4.50;41.70;;;;;;4963368;28;21306;-64
2022/12/28 06:50:55;;;;;;;16.80;11.53;;;4.50;41.70;;;;;;4963509;28;20486;-64
2022/12/28 06:53:22;;;;;;;15.70;11.30;;;4.50;41.70;;;;;;4967414;28;20543;-63
2022/12/28 06:55:54;;;;;;;16.20;11.10;;;4.50;41.70;;;;;;4965625;28;20868;-64
2022/12/28 06:58:21;;;;;;;15.77;11.03;;;4.50;41.90;;;;;;4965850;28;20469;-64
2022/12/28 07:00:48;;;;;;;15.20;10.30;;;4.50;41.90;;;;;;4962693;28;20489;-63
2022/12/28 07:03:14;;;;;;;13.93;9.50;;;4.50;41.90;;;;;;4948695;23;21892;-63
2022/12/28 07:05:41;;;;;;;21.43;11.60;;;4.60;42.00;;;;;;4959372;28;20462;-64
2022/12/28 07:08:08;;;;;;;15.90;11.63;;;4.60;41.90;;;;;;4963585;28;20465;-64
2022/12/28 07:10:35;;;;;;;15.23;10.57;;;4.60;42.10;;;;;;4956630;28;20540;-64
2022/12/28 07:13:03;;;;;;;17.97;10.93;;;4.60;42.10;;;;;;4961220;28;20482;-63
2022/12/28 07:15:30;;;;;;;12.07;8.77;;;4.60;42.00;;;;;;4966131;28;20476;-64
2022/12/28 07:17:58;;;;;;;15.07;9.57;;;4.60;42.00;;;;;;4965864;28;20826;-63
2022/12/28 07:20:25;;;;;;;14.00;9.47;;;4.70;41.90;;;;;;4975019;28;20457;-63
2022/12/28 07:22:53;;;;;;;14.30;9.83;;;4.70;41.80;;;;;;4962822;28;20485;-64
2022/12/28 07:25:20;;;;;;;12.47;8.87;;;4.70;41.70;;;;;;4965080;28;20470;-64
2022/12/28 07:27:46;;;;;;;14.10;10.00;;;4.70;41.60;;;;;;4965370;28;20465;-64
2022/12/28 07:30:15;;;;;;;12.43;7.80;;;4.80;41.40;;;;;;4966523;28;20803;-64
2022/12/28 07:32:42;;;;;;;11.83;8.00;;;4.80;41.50;;;;;;4969712;28;20476;-64
2022/12/28 07:35:09;;;;;;;14.10;9.00;;;4.80;41.50;;;;;;4961454;28;20909;-64
2022/12/28 07:37:36;;;;;;;12.20;8.47;;;4.80;41.70;;;;;;4962461;28;20493;-64
2022/12/28 07:40:04;;;;;;;11.63;8.57;;;4.90;41.60;;;;;;4970215;28;20473;-64
2022/12/28 07:42:31;;;;;;;13.23;8.53;;;4.90;41.80;;;;;;4968777;28;20484;-64
2022/12/28 07:44:58;;;;;;;15.17;9.10;;;4.80;41.70;;;;;;4961963;28;20472;-64
2022/12/28 07:47:26;;;;;;;12.07;8.77;;;4.90;41.80;;;;;;4961767;28;20457;-64
2022/12/28 07:49:53;;;;;;;12.53;8.03;;;4.90;41.70;;;;;;4965736;28;20990;-64
2022/12/28 07:52:19;;;;;;;10.33;7.17;;;4.90;41.50;;;;;;4965770;28;20492;-63
2022/12/28 07:54:46;;;;;;;12.33;7.30;;;5.00;41.30;;;;;;4960580;28;20457;-63
2022/12/28 07:57:13;;;;;;;11.50;6.30;;;5.00;41.20;;;;;;4970027;28;21184;-63
2022/12/28 07:59:40;;;;;;;11.80;5.90;;;5.10;41.80;;;;;;4961107;28;20556;-63
2022/12/28 08:02:09;;;;;;;9.47;5.70;;;5.20;41.10;;;;;;4962227;28;20865;-64
2022/12/28 08:04:37;;;;;;;8.77;5.53;;;5.20;41.30;;;;;;4963386;28;20505;-63
2022/12/28 08:07:04;;;;;;;9.20;5.80;;;5.30;41.20;;;;;;4966157;28;20996;-63
2022/12/28 08:09:31;;;;;;;12.97;5.30;;;5.40;41.00;;;;;;4964164;28;20978;-63
2022/12/28 08:11:58;;;;;;;10.10;5.40;;;5.40;40.80;;;;;;4964217;28;20509;-64
2022/12/28 08:14:25;;;;;;;8.40;4.60;;;5.50;40.70;;;;;;4961789;28;20482;-64
2022/12/28 08:16:52;;;;;;;7.53;4.40;;;5.60;40.50;;;;;;4962595;28;20465;-64
2022/12/28 08:19:19;;;;;;;8.80;4.40;;;5.70;40.40;;;;;;4964197;28;20978;-65
2022/12/28 08:21:47;;;;;;;7.60;4.60;;;5.90;40.10;;;;;;4964392;28;20950;-64
2022/12/28 08:24:15;;;;;;;7.23;3.87;;;6.20;39.40;;;;;;4962641;28;20486;-66
2022/12/28 08:26:43;;;;;;;6.97;3.27;;;6.30;38.70;;;;;;4961879;28;20469;-64
2022/12/28 08:29:13;;;;;;;7.47;3.40;;;6.40;37.90;;;;;;4969678;28;20528;-65
2022/12/28 08:31:42;;;;;;;6.97;3.50;;;6.50;37.80;;;;;;4963206;28;20487;-65
2022/12/28 08:34:12;;;;;;;6.20;3.20;;;6.70;37.50;;;;;;4959876;28;20496;-64
2022/12/28 08:36:39;;;;;;;5.87;3.23;;;6.80;36.80;;;;;;4962796;28;20473;-65
2022/12/28 08:39:08;;;;;;;12.10;3.70;;;7.20;37.20;;;;;;4965339;28;20484;-64
2022/12/28 08:41:35;;;;;;;5.70;2.70;;;8.00;35.50;;;;;;4960907;28;20993;-64
2022/12/28 08:44:02;;;;;;;5.57;2.80;;;8.50;33.20;;;;;;4953512;28;20488;-65
2022/12/28 08:46:30;;;;;;;5.60;2.40;;;8.70;31.80;;;;;;4964650;28;20472;-65
2022/12/28 08:48:58;;;;;;;5.70;2.53;;;8.90;31.20;;;;;;4965738;28;21050;-66
2022/12/28 08:51:29;;;;;;;5.37;2.63;;;9.40;30.00;;;;;;4966370;28;20516;-66
2022/12/28 08:53:56;;;;;;;7.03;2.90;;;9.70;28.30;;;;;;4966742;28;20496;-67
2022/12/28 08:56:26;;;;;;;5.80;2.30;;;9.80;27.90;;;;;;4965884;28;20461;-67
2022/12/28 08:58:54;;;;;;;5.17;2.83;;;9.80;26.80;;;;;;4965525;28;20466;-67
2022/12/28 09:01:23;;;;;;;5.50;2.57;;;9.70;26.70;;;;;;4964675;28;20466;-67
2022/12/28 09:03:53;;;;;;;9.03;2.70;;;9.60;26.10;;;;;;4963609;28;20493;-65
2022/12/28 09:06:22;;;;;;;5.50;2.90;;;9.60;26.20;;;;;;4970236;28;20473;-67
2022/12/28 09:08:50;;;;;;;4.87;2.20;;;9.40;26.80;;;;;;4966796;28;20571;-66
2022/12/28 09:11:17;;;;;;;5.17;2.40;;;9.30;27.20;;;;;;4966131;28;20879;-67
2022/12/28 09:13:46;;;;;;;5.33;2.40;;;9.30;27.20;;;;;;4964347;28;20496;-67
2022/12/28 09:16:15;;;;;;;5.73;3.03;;;9.20;27.20;;;;;;4964961;28;20473;-67
2022/12/28 09:18:43;;;;;;;4.77;2.10;;;9.10;27.20;;;;;;4965752;28;20461;-67
2022/12/28 09:21:13;;;;;;;6.27;2.47;;;9.10;27.30;;;;;;4963378;28;20471;-67
2022/12/28 09:23:40;;;;;;;5.30;2.10;;;9.00;27.40;;;;;;4962679;28;20493;-67
2022/12/28 09:26:09;;;;;;;7.63;2.93;;;8.90;27.80;;;;;;4967982;28;20466;-67
2022/12/28 09:28:36;;;;;;;4.40;2.10;;;8.90;28.10;;;;;;4968857;28;20457;-65
2022/12/28 09:31:05;;;;;;;5.60;2.30;;;8.80;28.30;;;;;;4966898;28;20488;-67
2022/12/28 09:36:18;;;;;;;4.90;2.50;;;8.60;28.50;;;;;;4957229;28;21148;-67
2022/12/28 09:38:45;;;;;;;5.20;2.30;;;8.50;28.80;;;;;;4957705;28;20477;-67
2022/12/28 09:41:21;;;;;;;5.43;2.57;;;8.50;29.50;;;;;;4956073;28;20989;-67
2022/12/28 09:43:51;;;;;;;7.50;2.40;;;8.50;29.30;;;;;;4959275;28;20481;-67
2022/12/28 09:46:22;;;;;;;6.40;2.93;;;8.40;29.30;;;;;;4958667;28;20880;-67
2022/12/28 09:48:54;;;;;;;7.27;3.30;;;8.50;29.20;;;;;;4959888;28;20465;-67
2022/12/28 09:51:28;;;;;;;5.90;3.30;;;8.50;29.50;;;;;;4959165;28;20486;-67
2022/12/28 09:53:55;;;;;;;6.60;3.70;;;8.50;29.40;;;;;;4957615;28;21068;-67
2022/12/28 09:56:26;;;;;;;6.37;4.00;;;8.50;29.40;;;;;;4957128;28;20462;-65
2022/12/28 09:58:54;;;;;;;6.40;4.07;;;8.60;29.20;;;;;;4956999;28;20470;-67
2022/12/28 10:01:23;;;;;;;6.83;4.10;;;8.70;28.90;;;;;;4957811;28;20488;-67
2022/12/28 10:03:50;;;;;;;6.00;3.10;;;8.90;29.00;;;;;;4960501;28;21035;-67
2022/12/28 10:06:20;;;;;;;8.03;3.33;;;8.90;29.10;;;;;;4962456;28;20477;-67
2022/12/28 10:08:50;;;;;;;7.80;4.37;;;9.20;28.90;;;;;;4962094;28;20469;-67
2022/12/28 10:11:20;;;;;;;9.00;5.23;;;9.60;28.20;;;;;;4963491;28;20504;-68
2022/12/28 10:13:53;;;;;;;6.13;3.47;;;10.00;27.50;;;;;;4961137;28;20493;-67
2022/12/28 10:16:24;;;;;;;12.50;7.00;;;10.40;26.00;;;;;;4961884;28;20462;-68
2022/12/28 10:18:51;;;;;;;7.23;4.67;;;10.80;25.10;;;;;;4961945;28;20479;-67
2022/12/28 10:21:19;;;;;;;8.63;3.83;;;11.10;23.50;;;;;;4964594;28;20462;-67
2022/12/28 10:23:49;;;;;;;5.13;3.00;;;11.30;23.40;;;;;;4959101;28;20489;-67
2022/12/28 10:26:18;;;;;;;5.53;2.87;;;11.60;22.00;;;;;;4961193;28;20481;-67
2022/12/28 10:28:49;;;;;;;5.30;3.03;;;11.80;21.50;;;;;;4962503;28;20557;-67
2022/12/28 10:31:16;;;;;;;6.00;3.20;;;12.00;19.90;;;;;;4962201;28;20868;-68
2022/12/28 10:33:51;;;;;;;7.40;3.27;;;12.30;19.40;;;;;;4964500;28;20592;-68
2022/12/28 10:36:18;;;;;;;6.03;2.63;;;12.60;18.60;;;;;;4967375;28;20461;-67
2022/12/28 10:38:51;;;;;;;6.00;2.37;;;12.80;18.00;;;;;;4966483;28;20476;-66
2022/12/28 10:41:20;;;;;;;4.93;2.17;;;13.00;17.60;;;;;;4967122;28;20536;-66
2022/12/28 10:43:52;;;;;;;6.70;2.70;;;13.20;16.40;;;;;;4970362;28;20481;-66
2022/12/28 10:46:20;;;;;;;6.90;3.13;;;13.40;15.90;;;;;;4970703;28;20466;-66
2022/12/28 10:48:52;;;;;;;7.43;3.60;;;13.70;15.40;;;;;;4967006;28;20462;-68
2022/12/28 10:51:22;;;;;;;7.40;3.20;;;13.90;15.40;;;;;;4962854;28;20466;-68
2022/12/28 10:53:50;;;;;;;6.20;3.07;;;14.20;14.80;;;;;;4967285;28;20492;-68
2022/12/28 10:56:23;;;;;;;6.17;2.63;;;14.60;14.20;;;;;;4967787;28;20468;-68
2022/12/28 10:58:51;;;;;;;5.73;2.50;;;14.90;13.30;;;;;;4974161;28;20885;-68
2022/12/28 11:01:23;;;;;;;6.00;2.80;;;15.10;12.90;;;;;;4961207;28;20485;-68
2022/12/28 11:04:04;;;;;;;6.80;2.63;;;15.40;12.10;;;;;;4963724;28;21088;-68
2022/12/28 11:06:33;;;;;;;5.30;2.30;;;15.80;11.10;;;;;;4956645;28;20466;-68
2022/12/28 11:09:03;;;;;;;5.67;1.93;;;16.40;10.70;;;;;;4961339;28;20469;-67
2022/12/28 11:11:31;;;;;;;5.90;2.50;;;17.20;8.90;;;;;;4959857;28;20462;-67
2022/12/28 11:14:02;;;;;;;5.90;2.00;;;18.10;8.10;;;;;;4961073;28;20884;-68
2022/12/28 11:16:33;;;;;;;4.73;1.20;;;18.90;6.80;;;;;;4956557;28;20465;-68
2022/12/28 11:19:01;;;;;;;5.40;1.73;;;19.70;5.50;;;;;;4959237;28;20514;-65
2022/12/28 11:21:28;;;;;;;4.00;1.47;;;20.20;4.00;;;;;;4960772;28;20462;-65
2022/12/28 11:23:55;;;;;;;4.57;1.50;;;20.70;3.20;;;;;;4957415;28;20488;-62
2022/12/28 11:26:22;;;;;;;6.67;1.50;;;21.10;2.20;;;;;;4962261;28;20464;-63
2022/12/28 11:28:51;;;;;;;7.30;1.13;;;21.30;1.30;;;;;;4958820;28;20477;-63
2022/12/28 11:31:23;;;;;;;3.97;1.03;;;20.70;1.00;;;;;;4959526;28;20482;-62
2022/12/28 11:33:52;;;;;;;7.43;1.40;;;20.30;1.40;;;;;;4957216;28;20500;-62
2022/12/28 11:36:23;;;;;;;3.97;1.27;;;20.00;1.40;;;;;;4961901;28;20472;-62
2022/12/28 11:38:52;;;;;;;4.33;1.40;;;20.20;1.70;;;;;;4962285;28;20469;-62
2022/12/28 11:41:41;;;;;;;4.37;1.63;;;19.80;1.80;;;;;;4962154;28;21031;-62
2022/12/28 11:44:20;;;;;;;5.70;1.40;;;18.70;2.70;;;;;;4965661;28;21024;-63
2022/12/28 11:47:00;;;;;;;5.00;1.70;;;18.00;3.90;;;;;;4960616;28;20472;-62
2022/12/28 11:49:30;;;;;;;4.20;1.30;;;17.50;4.70;;;;;;4964670;28;20461;-62
2022/12/28 11:52:43;;;;;;;5.03;1.73;;;17.00;5.40;;;;;;4966162;28;20813;-63
2022/12/28 11:55:44;;;;;;;4.63;1.40;;;16.40;6.30;;;;;;4964388;28;20516;-63
2022/12/28 11:58:48;;;;;;;4.80;1.60;;;15.80;6.90;;;;;;4966666;28;20461;-62
2022/12/28 12:01:43;;;;;;;4.27;1.43;;;15.40;7.70;;;;;;4962420;28;20496;-62
2022/12/28 12:04:32;;;;;;;3.87;1.20;;;14.90;9.20;;;;;;4970013;28;20564;-63
2022/12/28 12:07:44;;;;;;;3.90;1.40;;;14.60;9.60;;;;;;4961876;28;20465;-63
2022/12/28 12:10:35;;;;;;;6.30;1.70;;;14.30;10.10;;;;;;4965476;28;20544;-62
2022/12/28 12:13:41;;;;;;;4.97;1.57;;;14.10;10.90;;;;;;4962844;28;20481;-62
2022/12/28 12:16:17;;;;;;;5.30;1.77;;;13.90;11.30;;;;;;4964497;28;20556;-62
2022/12/28 12:18:47;;;;;;;4.27;1.50;;;13.80;11.80;;;;;;4961595;28;20465;-63
2022/12/28 12:21:27;;;;;;;6.10;1.97;;;13.90;12.60;;;;;;4963387;28;20472;-63
2022/12/28 12:23:57;;;;;;;4.70;1.63;;;14.00;12.10;;;;;;4958635;28;20482;-62
2022/12/28 12:26:37;;;;;;;4.73;1.57;;;14.20;11.30;;;;;;4963048;28;20464;-62
2022/12/28 12:29:13;;;;;;;4.17;1.53;;;14.20;11.10;;;;;;4960750;28;20461;-62
2022/12/28 12:31:44;;;;;;;5.40;1.80;;;14.30;11.20;;;;;;4956006;28;20473;-62
2022/12/28 12:34:17;;;;;;;5.40;1.47;;;14.30;11.10;;;;;;4963440;28;21009;-63
2022/12/28 12:37:16;;;;;;;7.13;1.80;;;14.20;10.90;;;;;;4960094;28;20473;-62
2022/12/28 12:40:15;;;;;;;4.50;1.23;;;13.90;11.40;;;;;;4959366;28;20975;-62
2022/12/28 12:42:56;;;;;;;4.40;1.40;;;13.70;12.10;;;;;;4956037;28;21088;-62
2022/12/28 12:45:33;;;;;;;5.43;1.40;;;13.60;12.90;;;;;;4956506;28;20601;-63
2022/12/28 12:48:37;;;;;;;3.83;1.27;;;13.60;13.10;;;;;;4965113;28;20461;-62
2022/12/28 12:51:15;;;;;;;5.20;1.63;;;13.50;13.50;;;;;;4943005;28;20454;-63
2022/12/28 12:54:05;;;;;;;4.33;1.73;;;13.50;13.60;;;;;;4960574;28;20489;-63
2022/12/28 12:56:44;;;;;;;4.67;1.50;;;13.40;13.60;;;;;;4961264;28;20462;-62
2022/12/28 12:59:38;;;;;;;4.40;1.87;;;13.30;13.30;;;;;;4960745;28;20461;-62
2022/12/28 13:02:28;;;;;;;4.37;2.13;;;13.10;13.40;;;;;;4960199;28;20637;-63
2022/12/28 13:04:55;;;;;;;4.63;2.10;;;13.00;13.90;;;;;;4956990;28;20461;-63
2022/12/28 13:07:25;;;;;;;4.60;2.50;;;12.90;15.00;;;;;;4960967;28;20461;-63
2022/12/28 13:09:55;;;;;;;7.00;2.77;;;12.80;15.20;;;;;;4961047;28;20479;-63
2022/12/28 13:12:24;;;;;;;5.07;1.80;;;12.70;15.20;;;;;;4961926;28;20714;-62
2022/12/28 13:14:57;;;;;;;4.50;2.00;;;12.70;15.30;;;;;;4963816;28;20473;-62
2022/12/28 13:17:26;;;;;;;4.97;2.20;;;12.70;15.60;;;;;;4966709;28;20461;-63
2022/12/28 13:20:09;;;;;;;6.53;1.60;;;12.70;15.70;;;;;;4955345;28;20466;-63
2022/12/28 13:22:35;;;;;;;4.40;1.60;;;12.80;15.40;;;;;;4963098;28;20490;-63
2022/12/28 13:25:02;;;;;;;4.10;1.50;;;12.80;14.90;;;;;;4960079;28;20474;-63
2022/12/28 13:27:33;;;;;;;4.17;1.53;;;12.80;14.40;;;;;;4960778;28;20469;-63
2022/12/28 13:30:01;;;;;;;4.73;1.17;;;12.80;14.80;;;;;;4967645;28;20470;-63
2022/12/28 13:32:35;;;;;;;5.50;1.37;;;12.80;14.70;;;;;;4963193;28;20577;-63
2022/12/28 13:35:02;;;;;;;5.40;1.30;;;12.70;13.90;;;;;;4959106;28;20477;-62